createdAt,value
2017-11-17T00:00:32.262Z,30.80
2017-11-17T00:02:59.876Z,33.93
2017-11-17T00:05:27.473Z,26.13
2017-11-17T00:07:55.853Z,29.77
2017-11-17T00:10:24.214Z,29.73
2017-11-17T00:12:51.832Z,31.57
2017-11-17T00:15:19.426Z,30.00
2017-11-17T00:17:48.549Z,29.37
2017-11-17T00:20:16.913Z,29.53
2017-11-17T00:22:44.574Z,28.60
2017-11-17T00:25:12.234Z,29.73
2017-11-17T00:27:39.849Z,28.93
2017-11-17T00:30:07.477Z,29.77
2017-11-17T00:32:35.104Z,30.70
2017-11-17T00:35:03.478Z,29.63
2017-11-17T00:37:31.161Z,28.77
2017-11-17T00:39:58.786Z,26.87
2017-11-17T00:42:26.488Z,27.30
2017-11-17T00:44:54.113Z,27.80
2017-11-17T00:47:21.705Z,26.57
2017-11-17T00:49:50.829Z,27.60
2017-11-17T00:52:19.316Z,30.10
2017-11-17T00:54:47.772Z,27.70
2017-11-17T00:57:15.437Z,24.93
2017-11-17T00:59:43.053Z,25.63
2017-11-17T01:02:10.666Z,27.07
2017-11-17T01:04:38.340Z,26.37
2017-11-17T01:07:06.705Z,28.77
2017-11-17T01:09:34.323Z,30.70
2017-11-17T01:12:01.935Z,28.23
2017-11-17T01:14:29.589Z,28.03
2017-11-17T01:16:57.207Z,29.57
2017-11-17T01:19:24.803Z,27.80
2017-11-17T01:21:53.926Z,30.20
2017-11-17T01:24:22.391Z,27.70
2017-11-17T01:26:50.118Z,29.87
2017-11-17T01:29:17.718Z,30.87
2017-11-17T01:31:46.099Z,26.57
2017-11-17T01:34:13.694Z,29.70
2017-11-17T01:36:41.424Z,30.00
2017-11-17T01:39:09.086Z,28.90
2017-11-17T01:41:36.706Z,31.50
2017-11-17T01:44:04.312Z,28.53
2017-11-17T01:46:33.448Z,32.00
2017-11-17T01:49:01.070Z,30.40
2017-11-17T01:51:28.676Z,32.17
2017-11-17T01:53:56.289Z,32.50
2017-11-17T01:56:23.881Z,32.03
2017-11-17T01:58:52.342Z,33.43
2017-11-17T02:01:20.705Z,32.53
2017-11-17T02:03:48.317Z,31.53
2017-11-17T02:06:15.942Z,32.27
2017-11-17T02:08:43.566Z,29.83
2017-11-17T02:11:16.613Z,32.23
2017-11-17T02:13:45.001Z,28.70
2017-11-17T02:16:12.605Z,29.77
2017-11-17T02:18:40.220Z,29.53
2017-11-17T02:21:08.588Z,28.83
2017-11-17T02:23:36.974Z,25.27
2017-11-17T02:26:05.329Z,28.27
2017-11-17T02:28:32.937Z,29.00
2017-11-17T02:31:00.536Z,26.03
2017-11-17T02:33:28.131Z,25.10
2017-11-17T02:35:56.522Z,21.50
2017-11-17T02:38:24.974Z,25.37
2017-11-17T02:40:52.645Z,22.80
2017-11-17T02:43:20.247Z,20.10
2017-11-17T02:45:47.862Z,21.70
2017-11-17T02:48:15.463Z,21.70
2017-11-17T02:50:43.100Z,24.10
2017-11-17T02:53:11.457Z,22.90
2017-11-17T02:55:39.900Z,17.97
2017-11-17T02:58:07.489Z,20.93
2017-11-17T03:00:35.106Z,21.20
2017-11-17T03:03:02.709Z,20.80
2017-11-17T03:05:30.332Z,15.53
2017-11-17T03:07:57.938Z,19.37
2017-11-17T03:10:25.566Z,16.97
2017-11-17T03:12:53.188Z,15.47
2017-11-17T03:15:21.575Z,14.20
2017-11-17T03:17:50.050Z,13.97
2017-11-17T03:20:18.433Z,14.63
2017-11-17T03:22:46.798Z,12.80
2017-11-17T03:25:14.398Z,12.70
2017-11-17T03:27:42.022Z,15.23
2017-11-17T03:30:09.696Z,13.47
2017-11-17T03:32:38.089Z,12.30
2017-11-17T03:35:06.445Z,11.63
2017-11-17T03:37:35.654Z,11.47
2017-11-17T03:40:04.089Z,12.20
2017-11-17T03:42:31.788Z,11.90
2017-11-17T03:45:00.884Z,10.63
2017-11-17T03:47:28.550Z,10.63
2017-11-17T03:49:56.912Z,9.87
2017-11-17T03:52:24.522Z,8.63
2017-11-17T03:54:52.115Z,8.50
2017-11-17T03:57:19.726Z,7.40
2017-11-17T03:59:48.094Z,6.67
2017-11-17T04:02:17.199Z,6.30
2017-11-17T04:04:45.679Z,4.50
2017-11-17T04:07:13.343Z,5.13
2017-11-17T04:09:41.721Z,4.80
2017-11-17T04:12:09.304Z,4.27
2017-11-17T04:14:37.957Z,4.00
2017-11-17T04:17:07.054Z,4.20
2017-11-17T04:19:36.165Z,3.00
2017-11-17T04:22:04.527Z,3.27
2017-11-17T04:24:32.139Z,3.70
2017-11-17T04:26:59.766Z,3.00
2017-11-17T04:29:27.416Z,3.30
2017-11-17T04:31:55.774Z,3.30
2017-11-17T04:34:23.395Z,3.77
2017-11-17T04:36:51.035Z,3.50
2017-11-17T04:39:19.419Z,2.13
2017-11-17T04:41:47.767Z,3.00
2017-11-17T04:44:15.445Z,2.07
2017-11-17T04:46:43.818Z,3.10
2017-11-17T04:49:11.489Z,2.80
2017-11-17T04:51:39.146Z,2.40
2017-11-17T04:54:06.813Z,2.27
2017-11-17T04:56:35.939Z,2.30
2017-11-17T04:59:04.289Z,2.13
2017-11-17T05:01:32.665Z,3.03
2017-11-17T05:04:00.334Z,2.20
2017-11-17T05:06:28.819Z,2.43
2017-11-17T05:08:57.182Z,2.80
2017-11-17T05:11:24.816Z,1.83
2017-11-17T05:13:52.401Z,2.20
2017-11-17T05:16:20.080Z,2.10
2017-11-17T05:18:49.178Z,2.80
2017-11-17T05:21:18.387Z,2.67
2017-11-17T05:23:46.761Z,2.77
2017-11-17T05:26:15.148Z,3.17
2017-11-17T05:28:43.522Z,3.90
2017-11-17T05:31:12.722Z,2.83
2017-11-17T05:33:41.160Z,3.00
2017-11-17T05:36:08.767Z,2.90
2017-11-17T05:38:37.194Z,3.00
2017-11-17T05:41:04.787Z,3.70
2017-11-17T05:43:33.182Z,3.13
2017-11-17T05:46:00.842Z,3.17
2017-11-17T05:48:28.464Z,3.23
2017-11-17T05:50:56.062Z,3.43
2017-11-17T05:53:23.725Z,3.27
2017-11-17T05:55:51.331Z,3.00
2017-11-17T05:58:18.963Z,3.03
2017-11-17T06:00:47.317Z,4.47
2017-11-17T06:03:14.997Z,2.73
2017-11-17T06:05:42.667Z,2.70
2017-11-17T06:08:11.042Z,2.17
2017-11-17T06:10:38.701Z,3.20
2017-11-17T06:13:06.372Z,3.43
2017-11-17T06:15:34.846Z,2.70
2017-11-17T06:18:03.221Z,4.40
2017-11-17T06:20:30.834Z,4.23
2017-11-17T06:22:58.429Z,3.50
2017-11-17T06:25:26.049Z,4.83
2017-11-17T06:27:53.646Z,4.60
2017-11-17T06:30:21.333Z,5.13
2017-11-17T06:32:48.922Z,6.07
2017-11-17T06:35:17.318Z,2.93
2017-11-17T06:37:44.937Z,3.70
2017-11-17T06:40:12.606Z,4.57
2017-11-17T06:42:40.989Z,3.50
2017-11-17T06:45:09.461Z,3.53
2017-11-17T06:47:37.063Z,4.30
2017-11-17T06:50:04.698Z,3.33
2017-11-17T06:52:33.178Z,4.23
2017-11-17T06:55:01.550Z,4.37
2017-11-17T06:57:29.227Z,3.63
2017-11-17T06:59:57.693Z,4.07
2017-11-17T07:02:25.303Z,4.23
2017-11-17T07:04:52.942Z,4.50
2017-11-17T07:07:21.322Z,4.00
2017-11-17T07:09:49.682Z,3.70
2017-11-17T07:12:18.071Z,4.23
2017-11-17T07:14:46.540Z,4.90
2017-11-17T07:17:14.208Z,4.33
2017-11-17T07:19:41.930Z,3.97
2017-11-17T07:22:09.629Z,4.20
2017-11-17T07:24:37.300Z,3.70
2017-11-17T07:27:05.777Z,3.60
2017-11-17T07:29:33.446Z,3.50
2017-11-17T07:32:01.821Z,3.40
2017-11-17T07:34:30.297Z,3.70
2017-11-17T07:36:57.881Z,2.80
2017-11-17T07:39:26.354Z,2.90
2017-11-17T07:41:54.833Z,3.73
2017-11-17T07:44:23.315Z,3.23
2017-11-17T07:46:51.699Z,3.00
2017-11-17T07:49:20.098Z,3.13
2017-11-17T07:51:47.698Z,2.93
2017-11-17T07:54:15.312Z,4.20
2017-11-17T07:56:43.682Z,3.50
2017-11-17T07:59:12.161Z,3.07
2017-11-17T08:01:40.522Z,4.00
2017-11-17T08:04:08.147Z,3.13
2017-11-17T08:06:35.752Z,2.80
2017-11-17T08:09:03.382Z,3.00
2017-11-17T08:11:31.094Z,4.17
2017-11-17T08:13:59.448Z,2.83
2017-11-17T08:16:27.065Z,3.03
2017-11-17T08:18:54.697Z,3.90
2017-11-17T08:21:23.169Z,3.30
2017-11-17T08:23:50.761Z,2.50
2017-11-17T08:26:18.406Z,3.30
2017-11-17T08:28:46.753Z,2.93
2017-11-17T08:31:14.438Z,3.80
2017-11-17T08:33:43.628Z,3.30
2017-11-17T08:36:11.255Z,2.33
2017-11-17T08:38:38.861Z,3.83
2017-11-17T08:41:07.404Z,3.93
2017-11-17T08:43:34.981Z,3.40
2017-11-17T08:46:02.603Z,3.67
2017-11-17T08:48:30.238Z,2.87
2017-11-17T08:50:57.889Z,3.70
2017-11-17T08:53:27.094Z,4.50
2017-11-17T08:55:56.194Z,3.70
2017-11-17T08:58:24.577Z,3.93
2017-11-17T09:00:52.946Z,3.47
2017-11-17T09:03:21.332Z,2.83
2017-11-17T09:05:48.994Z,3.67
2017-11-17T09:08:17.474Z,3.10
2017-11-17T09:10:45.839Z,3.33
2017-11-17T09:13:13.454Z,3.53
2017-11-17T09:15:41.138Z,4.03
2017-11-17T09:18:08.745Z,4.20
2017-11-17T09:20:37.110Z,3.40
2017-11-17T09:23:04.730Z,3.83
2017-11-17T09:25:32.330Z,3.37
2017-11-17T09:28:00.681Z,3.20
2017-11-17T09:30:28.369Z,2.90
2017-11-17T09:32:56.067Z,2.80
2017-11-17T09:35:24.450Z,3.70
2017-11-17T09:37:52.798Z,4.50
2017-11-17T09:40:21.184Z,3.40
2017-11-17T09:42:49.561Z,3.30
2017-11-17T09:45:18.673Z,4.30
2017-11-17T09:47:47.043Z,3.60
2017-11-17T09:50:14.664Z,4.70
2017-11-17T09:52:42.265Z,4.17
2017-11-17T09:55:11.391Z,3.13
2017-11-17T09:57:39.753Z,3.67
2017-11-17T10:00:08.234Z,3.23
2017-11-17T10:02:36.668Z,3.97
2017-11-17T10:05:04.368Z,3.77
2017-11-17T10:07:32.732Z,2.83
2017-11-17T10:10:00.409Z,3.00
2017-11-17T10:12:28.893Z,3.70
2017-11-17T10:14:56.474Z,3.67
2017-11-17T10:17:24.870Z,3.50
2017-11-17T10:19:52.534Z,2.70
2017-11-17T10:22:20.161Z,3.30
2017-11-17T10:24:48.526Z,4.60
2017-11-17T10:27:16.207Z,3.30
2017-11-17T10:29:43.789Z,3.50
2017-11-17T10:32:12.156Z,3.00
2017-11-17T10:34:40.524Z,3.50
2017-11-17T10:37:08.181Z,3.70
2017-11-17T10:39:36.550Z,3.20
2017-11-17T10:42:04.234Z,3.43
2017-11-17T10:44:31.903Z,3.57
2017-11-17T10:47:00.280Z,3.57
2017-11-17T10:49:28.661Z,4.23
2017-11-17T10:51:57.044Z,3.43
2017-11-17T10:54:25.519Z,3.20
2017-11-17T10:56:57.080Z,3.97
2017-11-17T10:59:25.462Z,3.40
2017-11-17T11:01:53.812Z,3.77
2017-11-17T11:04:21.434Z,3.87
2017-11-17T11:06:49.031Z,2.90
2017-11-17T11:09:16.705Z,3.20
2017-11-17T11:11:49.069Z,3.03
2017-11-17T11:14:16.756Z,2.23
2017-11-17T11:16:44.478Z,2.97
2017-11-17T11:19:12.189Z,3.53
2017-11-17T11:21:40.633Z,2.50
2017-11-17T11:24:08.331Z,3.53
2017-11-17T11:26:36.711Z,3.20
2017-11-17T11:29:05.088Z,3.23
2017-11-17T11:31:33.483Z,3.47
2017-11-17T11:34:01.855Z,3.10
2017-11-17T11:36:30.228Z,3.53
2017-11-17T11:38:57.895Z,3.17
2017-11-17T11:41:26.330Z,3.10
2017-11-17T11:43:53.939Z,3.43
2017-11-17T11:46:22.324Z,2.93
2017-11-17T11:48:50.798Z,3.40
2017-11-17T11:51:18.453Z,3.80
2017-11-17T11:53:46.032Z,2.20
2017-11-17T11:56:14.410Z,3.40
2017-11-17T11:58:42.857Z,2.90
2017-11-17T12:01:10.534Z,2.70
2017-11-17T12:03:38.202Z,3.57
2017-11-17T12:06:05.865Z,2.57
2017-11-17T12:08:33.525Z,3.60
2017-11-17T12:11:01.200Z,3.20
2017-11-17T12:13:29.587Z,2.70
2017-11-17T12:15:57.946Z,2.50
2017-11-17T12:18:25.564Z,2.63
2017-11-17T12:20:53.186Z,3.50
2017-11-17T12:23:21.661Z,3.23
2017-11-17T12:25:49.258Z,3.10
2017-11-17T12:28:16.991Z,2.43
2017-11-17T12:30:45.350Z,3.80
2017-11-17T12:33:13.780Z,2.70
2017-11-17T12:35:41.405Z,2.60
2017-11-17T12:38:09.017Z,3.83
2017-11-17T12:40:36.615Z,3.10
2017-11-17T12:43:04.243Z,2.33
2017-11-17T12:45:31.833Z,3.60
2017-11-17T12:47:59.438Z,2.93
2017-11-17T12:50:27.826Z,4.20
2017-11-17T12:52:55.421Z,2.03
2017-11-17T12:55:23.038Z,2.43
2017-11-17T12:57:51.506Z,3.30
2017-11-17T13:00:19.890Z,4.20
2017-11-17T13:02:48.262Z,3.60
2017-11-17T13:05:16.654Z,3.90
2017-11-17T13:07:45.118Z,3.47
2017-11-17T13:10:12.781Z,3.60
2017-11-17T13:12:40.369Z,2.33
2017-11-17T13:15:08.822Z,3.13
2017-11-17T13:17:36.417Z,3.40
2017-11-17T13:20:04.833Z,3.00
2017-11-17T13:22:32.420Z,2.73
2017-11-17T13:25:02.555Z,3.20
2017-11-17T13:27:31.039Z,3.60
2017-11-17T13:29:59.419Z,3.93
2017-11-17T13:32:27.801Z,4.03
2017-11-17T13:34:56.168Z,3.90
2017-11-17T13:37:23.776Z,3.53
2017-11-17T13:39:51.398Z,5.80
2017-11-17T13:42:19.123Z,7.77
2017-11-17T13:44:46.718Z,9.13
2017-11-17T13:47:14.381Z,9.20
2017-11-17T13:49:41.987Z,9.13
2017-11-17T13:52:09.706Z,8.50
2017-11-17T13:54:38.076Z,4.80
2017-11-17T13:57:05.699Z,4.27
2017-11-17T13:59:33.299Z,3.60
2017-11-17T14:02:00.919Z,3.50
2017-11-17T14:04:28.510Z,3.97
2017-11-17T14:06:56.127Z,2.87
2017-11-17T14:09:23.726Z,2.90
2017-11-17T14:11:51.362Z,3.37
2017-11-17T14:14:19.151Z,3.17
2017-11-17T14:16:46.848Z,4.03
2017-11-17T14:19:15.978Z,4.20
2017-11-17T14:21:44.401Z,3.70
2017-11-17T14:24:12.022Z,3.80
2017-11-17T14:26:40.396Z,4.60
2017-11-17T14:29:08.781Z,3.60
2017-11-17T14:31:37.147Z,4.00
2017-11-17T14:34:05.541Z,4.07
2017-11-17T14:36:33.174Z,3.33
2017-11-17T14:39:01.566Z,3.70
2017-11-17T14:41:30.036Z,3.77
2017-11-17T14:43:57.663Z,3.60
2017-11-17T14:46:25.370Z,2.83
2017-11-17T14:48:53.744Z,3.50
2017-11-17T14:51:21.339Z,3.10
2017-11-17T14:53:48.969Z,3.97
2017-11-17T14:56:16.588Z,4.37
2017-11-17T14:58:44.172Z,3.60
2017-11-17T15:01:11.812Z,3.67
2017-11-17T15:03:39.409Z,3.53
2017-11-17T15:06:07.017Z,4.13
2017-11-17T15:08:34.633Z,4.53
2017-11-17T15:11:03.116Z,4.07
2017-11-17T15:13:30.776Z,4.73
2017-11-17T15:15:58.450Z,3.87
2017-11-17T15:18:26.815Z,3.83
2017-11-17T15:20:55.195Z,4.60
2017-11-17T15:23:22.875Z,4.57
2017-11-17T15:25:51.253Z,3.77
2017-11-17T15:28:18.919Z,4.40
2017-11-17T15:30:47.287Z,4.13
2017-11-17T15:33:15.675Z,5.23
2017-11-17T15:35:44.048Z,4.67
2017-11-17T15:38:12.417Z,4.70
2017-11-17T15:40:40.011Z,5.87
2017-11-17T15:43:07.716Z,4.77
2017-11-17T15:45:35.318Z,4.40
2017-11-17T15:48:03.797Z,3.77
2017-11-17T15:50:31.391Z,3.67
2017-11-17T15:52:59.001Z,3.63
2017-11-17T15:55:26.603Z,4.60
2017-11-17T15:57:55.061Z,4.37
2017-11-17T16:00:24.162Z,3.10
2017-11-17T16:02:52.540Z,4.03
2017-11-17T16:05:20.927Z,3.93
2017-11-17T16:07:49.319Z,3.93
2017-11-17T16:10:17.669Z,4.33
2017-11-17T16:12:45.345Z,4.50
2017-11-17T16:15:13.817Z,4.43
2017-11-17T16:17:41.405Z,4.03
2017-11-17T16:20:09.862Z,4.03
2017-11-17T16:22:37.449Z,4.43
2017-11-17T16:25:05.846Z,5.00
2017-11-17T16:27:33.480Z,3.80
2017-11-17T16:30:01.861Z,4.00
2017-11-17T16:32:30.232Z,4.50
2017-11-17T16:34:57.905Z,6.00
2017-11-17T16:37:26.279Z,6.47
2017-11-17T16:39:55.412Z,10.93
2017-11-17T16:42:23.038Z,4.60
2017-11-17T16:44:51.520Z,4.83
2017-11-17T16:47:19.884Z,3.73
2017-11-17T16:49:47.506Z,5.00
2017-11-17T16:52:15.103Z,4.13
2017-11-17T16:54:42.752Z,5.07
2017-11-17T16:57:10.365Z,5.47
2017-11-17T16:59:38.732Z,4.30
2017-11-17T17:02:07.122Z,4.70
2017-11-17T17:04:35.486Z,4.80
2017-11-17T17:07:03.975Z,4.33
2017-11-17T17:09:32.341Z,4.40
2017-11-17T17:12:00.015Z,3.97
2017-11-17T17:14:28.391Z,5.70
2017-11-17T17:16:56.773Z,4.87
2017-11-17T17:19:25.126Z,4.70
2017-11-17T17:21:52.809Z,3.70
2017-11-17T17:24:21.171Z,5.57
2017-11-17T17:26:48.814Z,4.90
2017-11-17T17:29:16.522Z,5.17
2017-11-17T17:31:44.892Z,5.73
2017-11-17T17:34:13.382Z,4.07
2017-11-17T17:36:41.772Z,4.80
2017-11-17T17:39:10.152Z,4.73
2017-11-17T17:41:38.628Z,5.13
2017-11-17T17:44:07.017Z,5.60
2017-11-17T17:46:35.386Z,5.03
2017-11-17T17:49:03.765Z,6.50
2017-11-17T17:51:32.139Z,6.10
2017-11-17T17:54:00.621Z,5.63
2017-11-17T17:56:28.218Z,5.17
2017-11-17T17:58:55.949Z,4.80
2017-11-17T18:01:25.051Z,5.40
2017-11-17T18:03:53.439Z,4.20
2017-11-17T18:06:21.794Z,3.60
2017-11-17T18:08:49.433Z,5.20
2017-11-17T18:11:17.125Z,4.80
2017-11-17T18:13:44.726Z,5.07
2017-11-17T18:16:12.470Z,4.37
2017-11-17T18:18:40.943Z,4.10
2017-11-17T18:21:09.425Z,5.00
2017-11-17T18:23:37.806Z,6.10
2017-11-17T18:26:05.470Z,4.70
2017-11-17T18:28:33.843Z,4.70
2017-11-17T18:31:02.333Z,5.00
2017-11-17T18:33:30.037Z,4.97
2017-11-17T18:35:57.674Z,4.37
2017-11-17T18:38:25.229Z,3.07
2017-11-17T18:40:53.639Z,4.20
2017-11-17T18:43:21.258Z,3.87
2017-11-17T18:45:49.655Z,4.60
2017-11-17T18:48:18.075Z,3.40
2017-11-17T18:50:46.441Z,4.67
2017-11-17T18:53:14.020Z,6.00
2017-11-17T18:55:41.637Z,5.87
2017-11-17T18:58:09.989Z,3.90
2017-11-17T19:00:37.678Z,4.40
2017-11-17T19:03:05.244Z,5.17
2017-11-17T19:05:33.603Z,4.40
2017-11-17T19:08:02.035Z,4.00
2017-11-17T19:10:29.599Z,4.17
2017-11-17T19:12:57.222Z,4.50
2017-11-17T19:15:25.639Z,4.60
2017-11-17T19:17:53.993Z,4.20
2017-11-17T19:20:22.445Z,4.07
2017-11-17T19:22:51.565Z,4.60
2017-11-17T19:25:19.922Z,3.50
2017-11-17T19:27:49.036Z,4.00
2017-11-17T19:30:17.416Z,4.27
2017-11-17T19:32:45.009Z,3.17
2017-11-17T19:35:12.631Z,3.93
2017-11-17T19:37:41.099Z,3.60
2017-11-17T19:40:08.760Z,4.00
2017-11-17T19:42:36.363Z,3.63
2017-11-17T19:45:04.756Z,3.90
2017-11-17T19:47:32.364Z,3.93
2017-11-17T19:50:00.033Z,3.67
2017-11-17T19:52:28.406Z,3.87
2017-11-17T19:54:56.079Z,3.40
2017-11-17T19:57:25.177Z,3.17
2017-11-17T19:59:53.551Z,2.90
2017-11-17T20:02:22.645Z,3.23
2017-11-17T20:04:50.261Z,3.40
2017-11-17T20:07:17.863Z,3.73
2017-11-17T20:09:45.483Z,3.23
2017-11-17T20:12:13.066Z,3.47
2017-11-17T20:14:40.673Z,3.23
2017-11-17T20:17:09.144Z,3.70
2017-11-17T20:19:37.621Z,3.10
2017-11-17T20:22:06.006Z,4.00
2017-11-17T20:24:33.604Z,4.20
2017-11-17T20:27:01.224Z,3.80
2017-11-17T20:29:29.587Z,3.13
2017-11-17T20:31:57.261Z,5.07
2017-11-17T20:34:25.630Z,4.13
2017-11-17T20:36:53.259Z,3.73
2017-11-17T20:39:20.876Z,4.60
2017-11-17T20:41:50.003Z,3.03
2017-11-17T20:44:17.634Z,4.50
2017-11-17T20:46:46.013Z,4.10
2017-11-17T20:49:15.106Z,4.73
2017-11-17T20:51:44.343Z,3.90
2017-11-17T20:54:11.969Z,4.97
2017-11-17T20:56:40.437Z,4.40
2017-11-17T20:59:08.022Z,4.70
2017-11-17T21:01:36.374Z,4.23
2017-11-17T21:04:03.986Z,3.80
2017-11-17T21:06:31.569Z,3.70
2017-11-17T21:08:59.188Z,4.20
2017-11-17T21:11:27.552Z,3.70
2017-11-17T21:13:55.173Z,4.10
2017-11-17T21:16:22.757Z,4.23
2017-11-17T21:18:50.387Z,4.00
2017-11-17T21:21:17.986Z,4.47
2017-11-17T21:23:45.644Z,4.00
2017-11-17T21:26:13.255Z,4.90
2017-11-17T21:28:40.885Z,4.30
2017-11-17T21:31:08.487Z,5.10
2017-11-17T21:33:36.222Z,3.70
2017-11-17T21:36:04.588Z,4.20
2017-11-17T21:38:32.250Z,4.80
2017-11-17T21:40:59.922Z,5.00
2017-11-17T21:43:28.303Z,3.17
2017-11-17T21:45:56.716Z,5.63
2017-11-17T21:48:25.045Z,3.83
2017-11-17T21:50:52.730Z,4.67
2017-11-17T21:53:21.101Z,5.27
2017-11-17T21:55:48.731Z,4.97
2017-11-17T21:58:16.322Z,5.40
2017-11-17T22:00:43.937Z,5.77
2017-11-17T22:03:11.550Z,4.80
2017-11-17T22:05:39.235Z,4.63
2017-11-17T22:08:07.598Z,4.77
2017-11-17T22:10:35.973Z,5.43
2017-11-17T22:13:03.570Z,4.90
2017-11-17T22:15:31.194Z,5.10
2017-11-17T22:17:58.866Z,4.50
2017-11-17T22:20:27.247Z,4.60
2017-11-17T22:22:55.612Z,5.70
2017-11-17T22:25:23.287Z,5.67
2017-11-17T22:27:51.675Z,6.27
2017-11-17T22:30:20.030Z,6.07
2017-11-17T22:32:47.710Z,5.20
2017-11-17T22:35:15.379Z,5.73
2017-11-17T22:37:43.845Z,4.67
2017-11-17T22:40:11.516Z,4.87
2017-11-17T22:42:39.915Z,5.37
2017-11-17T22:45:07.519Z,5.70
2017-11-17T22:47:35.227Z,6.30
2017-11-17T22:50:03.599Z,5.23
2017-11-17T22:52:31.273Z,6.70
2017-11-17T22:54:59.752Z,6.13
2017-11-17T22:57:28.142Z,5.73
2017-11-17T22:59:56.502Z,6.93
2017-11-17T23:02:24.124Z,6.23
2017-11-17T23:04:51.830Z,6.27
2017-11-17T23:07:20.219Z,5.90
2017-11-17T23:09:48.573Z,5.83
2017-11-17T23:12:16.250Z,4.17
2017-11-17T23:14:43.836Z,4.13
2017-11-17T23:17:12.303Z,5.30
2017-11-17T23:19:40.788Z,4.77
2017-11-17T23:22:09.153Z,4.40
2017-11-17T23:24:36.769Z,4.10
2017-11-17T23:27:04.370Z,3.93
2017-11-17T23:29:31.988Z,4.60
2017-11-17T23:31:59.587Z,5.57
2017-11-17T23:34:27.274Z,5.13
2017-11-17T23:36:55.642Z,4.33
2017-11-17T23:39:23.313Z,6.70
2017-11-17T23:41:51.691Z,4.37
2017-11-17T23:44:20.098Z,4.20
2017-11-17T23:46:47.696Z,4.30
2017-11-17T23:49:15.407Z,5.23
2017-11-17T23:51:43.768Z,4.37
2017-11-17T23:54:11.436Z,4.57
2017-11-17T23:56:39.038Z,4.60
2017-11-17T23:59:06.628Z,4.07
